sensor_id;sensor_type;location;lat;lon;timestamp;P1;durP1;ratioP1;P2;durP2;ratioP2
12921;SDS011;6528;48.086;16.282;2023-02-01T00:01:09;1.47;;;1.37;;
12921;SDS011;6528;48.086;16.282;2023-02-01T00:03:36;1.50;;;1.40;;
12921;SDS011;6528;48.086;16.282;2023-02-01T00:06:03;1.80;;;1.70;;
12921;SDS011;6528;48.086;16.282;2023-02-01T00:08:30;1.30;;;1.20;;
12921;SDS011;6528;48.086;16.282;2023-02-01T00:11:01;1.90;;;1.80;;
12921;SDS011;6528;48.086;16.282;2023-02-01T00:13:35;1.60;;;1.37;;
12921;SDS011;6528;48.086;16.282;2023-02-01T00:16:04;1.00;;;1.00;;
12921;SDS011;6528;48.086;16.282;2023-02-01T00:18:33;3.27;;;1.33;;
12921;SDS011;6528;48.086;16.282;2023-02-01T00:21:00;1.60;;;1.50;;
12921;SDS011;6528;48.086;16.282;2023-02-01T00:23:27;1.63;;;1.53;;
12921;SDS011;6528;48.086;16.282;2023-02-01T00:25:53;2.83;;;1.63;;
12921;SDS011;6528;48.086;16.282;2023-02-01T00:28:20;1.33;;;1.23;;
12921;SDS011;6528;48.086;16.282;2023-02-01T00:30:54;1.30;;;1.30;;
12921;SDS011;6528;48.086;16.282;2023-02-01T00:33:28;1.73;;;1.10;;
12921;SDS011;6528;48.086;16.282;2023-02-01T00:36:00;1.40;;;1.30;;
12921;SDS011;6528;48.086;16.282;2023-02-01T00:38:29;1.60;;;1.50;;
12921;SDS011;6528;48.086;16.282;2023-02-01T00:41:07;1.30;;;1.23;;
12921;SDS011;6528;48.086;16.282;2023-02-01T00:43:37;1.17;;;1.10;;
12921;SDS011;6528;48.086;16.282;2023-02-01T00:46:04;1.20;;;1.10;;
12921;SDS011;6528;48.086;16.282;2023-02-01T00:48:31;1.00;;;1.00;;
12921;SDS011;6528;48.086;16.282;2023-02-01T00:51:02;1.30;;;1.20;;
12921;SDS011;6528;48.086;16.282;2023-02-01T00:53:31;2.03;;;1.23;;
12921;SDS011;6528;48.086;16.282;2023-02-01T00:55:59;1.27;;;1.10;;
12921;SDS011;6528;48.086;16.282;2023-02-01T00:58:26;1.00;;;0.90;;
12921;SDS011;6528;48.086;16.282;2023-02-01T01:03:56;1.17;;;1.10;;
12921;SDS011;6528;48.086;16.282;2023-02-01T01:06:33;1.13;;;1.03;;
12921;SDS011;6528;48.086;16.282;2023-02-01T01:09:01;1.00;;;1.00;;
12921;SDS011;6528;48.086;16.282;2023-02-01T01:11:32;1.20;;;1.10;;
12921;SDS011;6528;48.086;16.282;2023-02-01T01:14:02;1.80;;;1.30;;
12921;SDS011;6528;48.086;16.282;2023-02-01T01:16:30;1.40;;;1.30;;
12921;SDS011;6528;48.086;16.282;2023-02-01T01:18:58;0.80;;;0.80;;
12921;SDS011;6528;48.086;16.282;2023-02-01T01:21:25;1.57;;;1.20;;
12921;SDS011;6528;48.086;16.282;2023-02-01T01:23:52;0.80;;;0.80;;
12921;SDS011;6528;48.086;16.282;2023-02-01T01:26:24;1.00;;;1.00;;
12921;SDS011;6528;48.086;16.282;2023-02-01T01:28:53;1.20;;;1.10;;
12921;SDS011;6528;48.086;16.282;2023-02-01T01:31:22;0.90;;;0.90;;
12921;SDS011;6528;48.086;16.282;2023-02-01T01:33:50;1.30;;;1.13;;
12921;SDS011;6528;48.086;16.282;2023-02-01T01:36:18;0.90;;;0.90;;
12921;SDS011;6528;48.086;16.282;2023-02-01T01:38:45;1.00;;;0.93;;
12921;SDS011;6528;48.086;16.282;2023-02-01T01:41:16;0.90;;;0.90;;
12921;SDS011;6528;48.086;16.282;2023-02-01T01:43:58;1.13;;;1.03;;
12921;SDS011;6528;48.086;16.282;2023-02-01T01:46:30;1.13;;;1.03;;
12921;SDS011;6528;48.086;16.282;2023-02-01T01:49:06;0.80;;;0.80;;
12921;SDS011;6528;48.086;16.282;2023-02-01T01:51:37;2.00;;;0.80;;
12921;SDS011;6528;48.086;16.282;2023-02-01T01:54:17;0.90;;;0.90;;
12921;SDS011;6528;48.086;16.282;2023-02-01T01:56:52;1.10;;;1.10;;
12921;SDS011;6528;48.086;16.282;2023-02-01T01:59:22;0.90;;;0.90;;
12921;SDS011;6528;48.086;16.282;2023-02-01T02:01:50;0.87;;;0.87;;
12921;SDS011;6528;48.086;16.282;2023-02-01T02:04:18;0.70;;;0.70;;
12921;SDS011;6528;48.086;16.282;2023-02-01T02:06:47;1.27;;;1.13;;
12921;SDS011;6528;48.086;16.282;2023-02-01T02:09:18;0.80;;;0.80;;
12921;SDS011;6528;48.086;16.282;2023-02-01T02:11:45;0.77;;;0.77;;
12921;SDS011;6528;48.086;16.282;2023-02-01T02:14:12;0.80;;;0.80;;
12921;SDS011;6528;48.086;16.282;2023-02-01T02:33:58;1.53;;;1.00;;
12921;SDS011;6528;48.086;16.282;2023-02-01T02:39:53;0.70;;;0.70;;
12921;SDS011;6528;48.086;16.282;2023-02-01T02:42:29;0.67;;;0.67;;
12921;SDS011;6528;48.086;16.282;2023-02-01T02:45:41;0.90;;;0.87;;
12921;SDS011;6528;48.086;16.282;2023-02-01T02:48:57;0.80;;;0.70;;
12921;SDS011;6528;48.086;16.282;2023-02-01T02:51:30;0.77;;;0.77;;
12921;SDS011;6528;48.086;16.282;2023-02-01T02:54:39;0.90;;;0.90;;
12921;SDS011;6528;48.086;16.282;2023-02-01T02:57:14;0.73;;;0.73;;
12921;SDS011;6528;48.086;16.282;2023-02-01T03:00:14;0.60;;;0.60;;
12921;SDS011;6528;48.086;16.282;2023-02-01T03:03:03;0.60;;;0.60;;
12921;SDS011;6528;48.086;16.282;2023-02-01T03:05:48;1.07;;;0.80;;
12921;SDS011;6528;48.086;16.282;2023-02-01T03:08:20;0.70;;;0.60;;
12921;SDS011;6528;48.086;16.282;2023-02-01T03:16:22;0.87;;;0.87;;
12921;SDS011;6528;48.086;16.282;2023-02-01T03:19:24;0.87;;;0.60;;
12921;SDS011;6528;48.086;16.282;2023-02-01T03:21:57;0.97;;;0.80;;
12921;SDS011;6528;48.086;16.282;2023-02-01T03:24:37;0.60;;;0.60;;
12921;SDS011;6528;48.086;16.282;2023-02-01T03:27:09;0.80;;;0.70;;
12921;SDS011;6528;48.086;16.282;2023-02-01T03:32:22;0.67;;;0.67;;
12921;SDS011;6528;48.086;16.282;2023-02-01T03:34:49;0.70;;;0.70;;
12921;SDS011;6528;48.086;16.282;2023-02-01T03:37:21;0.50;;;0.50;;
12921;SDS011;6528;48.086;16.282;2023-02-01T03:39:58;0.50;;;0.50;;
12921;SDS011;6528;48.086;16.282;2023-02-01T03:47:48;0.70;;;0.70;;
12921;SDS011;6528;48.086;16.282;2023-02-01T03:50:21;0.57;;;0.50;;
12921;SDS011;6528;48.086;16.282;2023-02-01T03:52:56;0.60;;;0.60;;
12921;SDS011;6528;48.086;16.282;2023-02-01T03:55:29;0.60;;;0.50;;
12921;SDS011;6528;48.086;16.282;2023-02-01T04:00:30;0.47;;;0.47;;
12921;SDS011;6528;48.086;16.282;2023-02-01T04:02:57;0.70;;;0.70;;
12921;SDS011;6528;48.086;16.282;2023-02-01T04:05:23;0.57;;;0.57;;
12921;SDS011;6528;48.086;16.282;2023-02-01T04:07:50;0.60;;;0.60;;
12921;SDS011;6528;48.086;16.282;2023-02-01T04:10:17;0.57;;;0.57;;
12921;SDS011;6528;48.086;16.282;2023-02-01T04:12:45;0.50;;;0.50;;
12921;SDS011;6528;48.086;16.282;2023-02-01T04:15:12;0.40;;;0.40;;
12921;SDS011;6528;48.086;16.282;2023-02-01T04:17:38;0.70;;;0.70;;
12921;SDS011;6528;48.086;16.282;2023-02-01T04:20:05;0.50;;;0.50;;
12921;SDS011;6528;48.086;16.282;2023-02-01T04:22:32;0.53;;;0.53;;
12921;SDS011;6528;48.086;16.282;2023-02-01T04:24:59;0.60;;;0.50;;
12921;SDS011;6528;48.086;16.282;2023-02-01T04:27:26;0.60;;;0.60;;
12921;SDS011;6528;48.086;16.282;2023-02-01T04:29:53;0.70;;;0.60;;
12921;SDS011;6528;48.086;16.282;2023-02-01T04:32:23;2.40;;;0.50;;
12921;SDS011;6528;48.086;16.282;2023-02-01T04:34:50;0.50;;;0.50;;
12921;SDS011;6528;48.086;16.282;2023-02-01T04:37:16;0.47;;;0.47;;
12921;SDS011;6528;48.086;16.282;2023-02-01T04:39:43;0.50;;;0.50;;
12921;SDS011;6528;48.086;16.282;2023-02-01T04:42:10;0.47;;;0.47;;
12921;SDS011;6528;48.086;16.282;2023-02-01T04:44:36;0.43;;;0.43;;
12921;SDS011;6528;48.086;16.282;2023-02-01T04:47:05;0.60;;;0.60;;
12921;SDS011;6528;48.086;16.282;2023-02-01T04:49:32;0.70;;;0.70;;
12921;SDS011;6528;48.086;16.282;2023-02-01T04:51:59;0.50;;;0.50;;
12921;SDS011;6528;48.086;16.282;2023-02-01T04:54:26;0.60;;;0.60;;
12921;SDS011;6528;48.086;16.282;2023-02-01T04:56:53;0.50;;;0.50;;
12921;SDS011;6528;48.086;16.282;2023-02-01T04:59:19;0.40;;;0.40;;
12921;SDS011;6528;48.086;16.282;2023-02-01T05:01:46;0.53;;;0.53;;
12921;SDS011;6528;48.086;16.282;2023-02-01T05:04:14;0.50;;;0.50;;
12921;SDS011;6528;48.086;16.282;2023-02-01T05:06:41;0.50;;;0.50;;
12921;SDS011;6528;48.086;16.282;2023-02-01T05:09:07;0.40;;;0.40;;
12921;SDS011;6528;48.086;16.282;2023-02-01T05:11:34;0.80;;;0.80;;
12921;SDS011;6528;48.086;16.282;2023-02-01T05:14:19;0.50;;;0.50;;
12921;SDS011;6528;48.086;16.282;2023-02-01T05:16:46;0.70;;;0.70;;
12921;SDS011;6528;48.086;16.282;2023-02-01T05:19:13;0.60;;;0.60;;
12921;SDS011;6528;48.086;16.282;2023-02-01T05:21:40;0.57;;;0.57;;
12921;SDS011;6528;48.086;16.282;2023-02-01T05:24:07;0.53;;;0.53;;
12921;SDS011;6528;48.086;16.282;2023-02-01T05:26:46;0.60;;;0.60;;
12921;SDS011;6528;48.086;16.282;2023-02-01T05:29:14;0.50;;;0.50;;
12921;SDS011;6528;48.086;16.282;2023-02-01T05:31:44;0.60;;;0.60;;
12921;SDS011;6528;48.086;16.282;2023-02-01T05:34:12;0.63;;;0.63;;
12921;SDS011;6528;48.086;16.282;2023-02-01T05:36:39;0.90;;;0.60;;
12921;SDS011;6528;48.086;16.282;2023-02-01T05:39:06;0.97;;;0.97;;
12921;SDS011;6528;48.086;16.282;2023-02-01T05:41:33;0.60;;;0.60;;
12921;SDS011;6528;48.086;16.282;2023-02-01T05:43:59;0.73;;;0.73;;
12921;SDS011;6528;48.086;16.282;2023-02-01T05:46:26;0.67;;;0.67;;
12921;SDS011;6528;48.086;16.282;2023-02-01T05:48:53;0.80;;;0.80;;
12921;SDS011;6528;48.086;16.282;2023-02-01T05:51:20;0.50;;;0.50;;
12921;SDS011;6528;48.086;16.282;2023-02-01T05:53:46;0.73;;;0.73;;
12921;SDS011;6528;48.086;16.282;2023-02-01T05:56:13;0.77;;;0.77;;
12921;SDS011;6528;48.086;16.282;2023-02-01T05:58:40;1.73;;;1.63;;
12921;SDS011;6528;48.086;16.282;2023-02-01T06:01:06;0.63;;;0.63;;
12921;SDS011;6528;48.086;16.282;2023-02-01T06:03:33;0.80;;;0.80;;
12921;SDS011;6528;48.086;16.282;2023-02-01T06:06:00;0.70;;;0.70;;
12921;SDS011;6528;48.086;16.282;2023-02-01T06:08:27;0.70;;;0.70;;
12921;SDS011;6528;48.086;16.282;2023-02-01T06:11:01;0.67;;;0.67;;
12921;SDS011;6528;48.086;16.282;2023-02-01T06:13:30;0.60;;;0.60;;
12921;SDS011;6528;48.086;16.282;2023-02-01T06:16:00;0.77;;;0.77;;
12921;SDS011;6528;48.086;16.282;2023-02-01T06:18:32;0.70;;;0.70;;
12921;SDS011;6528;48.086;16.282;2023-02-01T06:21:00;1.07;;;1.07;;
12921;SDS011;6528;48.086;16.282;2023-02-01T06:23:27;1.00;;;1.00;;
12921;SDS011;6528;48.086;16.282;2023-02-01T06:25:59;0.70;;;0.70;;
12921;SDS011;6528;48.086;16.282;2023-02-01T06:28:28;0.80;;;0.80;;
12921;SDS011;6528;48.086;16.282;2023-02-01T06:30:55;1.20;;;0.93;;
12921;SDS011;6528;48.086;16.282;2023-02-01T06:33:24;1.60;;;1.00;;
12921;SDS011;6528;48.086;16.282;2023-02-01T06:35:58;0.83;;;0.83;;
12921;SDS011;6528;48.086;16.282;2023-02-01T06:38:26;0.90;;;0.90;;
12921;SDS011;6528;48.086;16.282;2023-02-01T06:40:53;1.33;;;1.23;;
12921;SDS011;6528;48.086;16.282;2023-02-01T06:43:22;0.60;;;0.60;;
12921;SDS011;6528;48.086;16.282;2023-02-01T06:45:50;0.83;;;0.83;;
12921;SDS011;6528;48.086;16.282;2023-02-01T06:48:17;1.07;;;1.07;;
12921;SDS011;6528;48.086;16.282;2023-02-01T06:50:44;33.47;;;15.90;;
12921;SDS011;6528;48.086;16.282;2023-02-01T06:53:11;92.27;;;38.60;;
12921;SDS011;6528;48.086;16.282;2023-02-01T06:55:38;70.10;;;28.00;;
12921;SDS011;6528;48.086;16.282;2023-02-01T06:58:04;69.47;;;31.37;;
12921;SDS011;6528;48.086;16.282;2023-02-01T07:00:31;62.87;;;26.97;;
12921;SDS011;6528;48.086;16.282;2023-02-01T07:02:58;65.30;;;29.10;;
12921;SDS011;6528;48.086;16.282;2023-02-01T07:05:26;62.83;;;27.80;;
12921;SDS011;6528;48.086;16.282;2023-02-01T07:07:52;64.27;;;27.73;;
12921;SDS011;6528;48.086;16.282;2023-02-01T07:10:19;54.53;;;28.37;;
12921;SDS011;6528;48.086;16.282;2023-02-01T07:12:46;54.00;;;26.00;;
12921;SDS011;6528;48.086;16.282;2023-02-01T07:15:13;53.30;;;26.33;;
12921;SDS011;6528;48.086;16.282;2023-02-01T07:17:40;56.80;;;28.00;;
12921;SDS011;6528;48.086;16.282;2023-02-01T07:20:07;52.33;;;25.10;;
12921;SDS011;6528;48.086;16.282;2023-02-01T07:22:34;60.97;;;26.80;;
12921;SDS011;6528;48.086;16.282;2023-02-01T07:25:01;62.83;;;26.13;;
12921;SDS011;6528;48.086;16.282;2023-02-01T07:27:33;50.07;;;25.60;;
12921;SDS011;6528;48.086;16.282;2023-02-01T07:30:01;53.83;;;24.50;;
12921;SDS011;6528;48.086;16.282;2023-02-01T07:32:28;50.30;;;24.00;;
12921;SDS011;6528;48.086;16.282;2023-02-01T07:34:56;50.53;;;23.90;;
12921;SDS011;6528;48.086;16.282;2023-02-01T07:37:24;45.07;;;23.40;;
12921;SDS011;6528;48.086;16.282;2023-02-01T07:39:51;49.87;;;23.17;;
12921;SDS011;6528;48.086;16.282;2023-02-01T07:42:18;48.03;;;20.30;;
12921;SDS011;6528;48.086;16.282;2023-02-01T07:44:45;40.80;;;21.20;;
12921;SDS011;6528;48.086;16.282;2023-02-01T07:47:11;42.87;;;23.27;;
12921;SDS011;6528;48.086;16.282;2023-02-01T07:49:38;41.30;;;20.53;;
12921;SDS011;6528;48.086;16.282;2023-02-01T07:52:05;39.37;;;19.77;;
12921;SDS011;6528;48.086;16.282;2023-02-01T07:54:32;43.73;;;20.97;;
12921;SDS011;6528;48.086;16.282;2023-02-01T07:56:58;44.63;;;20.43;;
12921;SDS011;6528;48.086;16.282;2023-02-01T07:59:25;38.13;;;20.20;;
12921;SDS011;6528;48.086;16.282;2023-02-01T08:01:52;43.03;;;21.90;;
12921;SDS011;6528;48.086;16.282;2023-02-01T08:04:18;40.60;;;20.80;;
12921;SDS011;6528;48.086;16.282;2023-02-01T08:06:46;37.43;;;20.40;;
12921;SDS011;6528;48.086;16.282;2023-02-01T08:09:12;36.40;;;18.30;;
12921;SDS011;6528;48.086;16.282;2023-02-01T08:11:39;35.13;;;17.50;;
12921;SDS011;6528;48.086;16.282;2023-02-01T08:14:06;37.47;;;19.50;;
12921;SDS011;6528;48.086;16.282;2023-02-01T08:16:33;33.27;;;17.90;;
12921;SDS011;6528;48.086;16.282;2023-02-01T08:19:01;32.30;;;17.47;;
12921;SDS011;6528;48.086;16.282;2023-02-01T08:21:28;31.07;;;17.17;;
12921;SDS011;6528;48.086;16.282;2023-02-01T08:24:05;34.37;;;17.93;;
12921;SDS011;6528;48.086;16.282;2023-02-01T08:26:34;33.60;;;17.63;;
12921;SDS011;6528;48.086;16.282;2023-02-01T08:29:02;31.17;;;17.17;;
12921;SDS011;6528;48.086;16.282;2023-02-01T08:31:30;32.70;;;16.77;;
12921;SDS011;6528;48.086;16.282;2023-02-01T08:33:58;34.90;;;16.40;;
12921;SDS011;6528;48.086;16.282;2023-02-01T08:36:27;29.00;;;16.60;;
12921;SDS011;6528;48.086;16.282;2023-02-01T08:38:55;31.67;;;16.27;;
12921;SDS011;6528;48.086;16.282;2023-02-01T08:41:23;28.80;;;16.30;;
12921;SDS011;6528;48.086;16.282;2023-02-01T08:43:52;29.70;;;15.37;;
12921;SDS011;6528;48.086;16.282;2023-02-01T08:46:20;31.03;;;16.17;;
12921;SDS011;6528;48.086;16.282;2023-02-01T08:48:48;29.17;;;15.70;;
12921;SDS011;6528;48.086;16.282;2023-02-01T08:51:16;27.47;;;15.07;;
12921;SDS011;6528;48.086;16.282;2023-02-01T08:53:45;24.00;;;14.70;;
12921;SDS011;6528;48.086;16.282;2023-02-01T08:56:13;24.20;;;14.07;;
12921;SDS011;6528;48.086;16.282;2023-02-01T08:58:42;27.47;;;15.30;;
12921;SDS011;6528;48.086;16.282;2023-02-01T09:01:09;28.40;;;14.20;;
12921;SDS011;6528;48.086;16.282;2023-02-01T09:03:39;25.07;;;13.73;;
12921;SDS011;6528;48.086;16.282;2023-02-01T09:06:07;25.93;;;14.40;;
12921;SDS011;6528;48.086;16.282;2023-02-01T09:08:36;21.60;;;13.53;;
12921;SDS011;6528;48.086;16.282;2023-02-01T09:11:05;25.03;;;13.33;;
12921;SDS011;6528;48.086;16.282;2023-02-01T09:13:33;27.40;;;14.60;;
12921;SDS011;6528;48.086;16.282;2023-02-01T09:16:01;24.90;;;14.30;;
12921;SDS011;6528;48.086;16.282;2023-02-01T09:18:29;22.60;;;13.37;;
12921;SDS011;6528;48.086;16.282;2023-02-01T09:20:56;19.27;;;11.33;;
12921;SDS011;6528;48.086;16.282;2023-02-01T09:23:23;21.30;;;12.97;;
12921;SDS011;6528;48.086;16.282;2023-02-01T09:25:50;22.80;;;12.70;;
12921;SDS011;6528;48.086;16.282;2023-02-01T09:28:17;19.17;;;11.40;;
12921;SDS011;6528;48.086;16.282;2023-02-01T09:30:44;25.60;;;13.60;;
12921;SDS011;6528;48.086;16.282;2023-02-01T09:33:11;19.10;;;11.77;;
12921;SDS011;6528;48.086;16.282;2023-02-01T09:35:38;21.53;;;12.50;;
12921;SDS011;6528;48.086;16.282;2023-02-01T09:38:05;24.03;;;12.50;;
12921;SDS011;6528;48.086;16.282;2023-02-01T09:40:33;19.97;;;12.70;;
12921;SDS011;6528;48.086;16.282;2023-02-01T09:48:34;20.67;;;12.20;;
12921;SDS011;6528;48.086;16.282;2023-02-01T09:51:11;20.40;;;12.37;;
12921;SDS011;6528;48.086;16.282;2023-02-01T09:53:43;17.10;;;11.17;;
12921;SDS011;6528;48.086;16.282;2023-02-01T09:56:17;19.10;;;11.57;;
12921;SDS011;6528;48.086;16.282;2023-02-01T09:58:47;20.53;;;11.40;;
12921;SDS011;6528;48.086;16.282;2023-02-01T10:01:27;18.40;;;11.13;;
12921;SDS011;6528;48.086;16.282;2023-02-01T10:03:57;16.00;;;11.47;;
12921;SDS011;6528;48.086;16.282;2023-02-01T10:20:24;17.30;;;11.87;;
12921;SDS011;6528;48.086;16.282;2023-02-01T10:28:48;15.73;;;10.97;;
12921;SDS011;6528;48.086;16.282;2023-02-01T10:31:17;15.40;;;10.13;;
12921;SDS011;6528;48.086;16.282;2023-02-01T10:33:49;16.40;;;10.73;;
12921;SDS011;6528;48.086;16.282;2023-02-01T10:36:23;14.20;;;10.50;;
12921;SDS011;6528;48.086;16.282;2023-02-01T10:38:57;14.57;;;10.37;;
12921;SDS011;6528;48.086;16.282;2023-02-01T10:41:28;12.33;;;9.30;;
12921;SDS011;6528;48.086;16.282;2023-02-01T10:43:59;15.10;;;10.40;;
12921;SDS011;6528;48.086;16.282;2023-02-01T10:46:29;13.13;;;9.70;;
12921;SDS011;6528;48.086;16.282;2023-02-01T10:48:58;13.90;;;9.93;;
12921;SDS011;6528;48.086;16.282;2023-02-01T10:51:38;13.97;;;10.03;;
12921;SDS011;6528;48.086;16.282;2023-02-01T10:54:14;12.30;;;9.33;;
12921;SDS011;6528;48.086;16.282;2023-02-01T10:56:57;14.67;;;8.97;;
12921;SDS011;6528;48.086;16.282;2023-02-01T10:59:27;13.00;;;8.63;;
12921;SDS011;6528;48.086;16.282;2023-02-01T11:01:59;11.77;;;8.93;;
12921;SDS011;6528;48.086;16.282;2023-02-01T11:04:30;14.67;;;9.03;;
12921;SDS011;6528;48.086;16.282;2023-02-01T11:07:12;14.20;;;9.40;;
12921;SDS011;6528;48.086;16.282;2023-02-01T11:09:50;12.90;;;8.20;;
12921;SDS011;6528;48.086;16.282;2023-02-01T11:12:31;12.77;;;8.70;;
12921;SDS011;6528;48.086;16.282;2023-02-01T11:15:19;12.60;;;8.83;;
12921;SDS011;6528;48.086;16.282;2023-02-01T11:17:48;12.70;;;8.50;;
12921;SDS011;6528;48.086;16.282;2023-02-01T11:22:58;11.37;;;8.00;;
12921;SDS011;6528;48.086;16.282;2023-02-01T11:25:25;12.80;;;8.33;;
12921;SDS011;6528;48.086;16.282;2023-02-01T11:27:53;9.97;;;7.60;;
12921;SDS011;6528;48.086;16.282;2023-02-01T11:30:38;12.27;;;8.03;;
12921;SDS011;6528;48.086;16.282;2023-02-01T11:33:07;11.67;;;7.53;;
12921;SDS011;6528;48.086;16.282;2023-02-01T11:35:41;11.40;;;8.30;;
12921;SDS011;6528;48.086;16.282;2023-02-01T11:38:20;10.60;;;7.80;;
12921;SDS011;6528;48.086;16.282;2023-02-01T11:41:10;9.50;;;7.37;;
12921;SDS011;6528;48.086;16.282;2023-02-01T11:43:50;8.97;;;6.90;;
12921;SDS011;6528;48.086;16.282;2023-02-01T11:46:28;9.20;;;6.63;;
12921;SDS011;6528;48.086;16.282;2023-02-01T11:48:57;10.50;;;7.47;;
12921;SDS011;6528;48.086;16.282;2023-02-01T11:52:02;7.57;;;6.80;;
12921;SDS011;6528;48.086;16.282;2023-02-01T11:54:56;10.43;;;6.10;;
12921;SDS011;6528;48.086;16.282;2023-02-01T11:57:35;7.27;;;6.53;;
12921;SDS011;6528;48.086;16.282;2023-02-01T12:00:26;9.13;;;6.53;;
12921;SDS011;6528;48.086;16.282;2023-02-01T12:05:58;10.53;;;7.37;;
12921;SDS011;6528;48.086;16.282;2023-02-01T12:14:16;10.20;;;7.30;;
12921;SDS011;6528;48.086;16.282;2023-02-01T12:16:58;8.40;;;6.13;;
12921;SDS011;6528;48.086;16.282;2023-02-01T12:19:39;8.33;;;5.83;;
12921;SDS011;6528;48.086;16.282;2023-02-01T12:25:42;7.57;;;5.87;;
12921;SDS011;6528;48.086;16.282;2023-02-01T12:39:26;7.20;;;5.43;;
12921;SDS011;6528;48.086;16.282;2023-02-01T12:42:24;7.77;;;5.67;;
12921;SDS011;6528;48.086;16.282;2023-02-01T12:44:53;8.40;;;6.03;;
12921;SDS011;6528;48.086;16.282;2023-02-01T12:47:33;6.67;;;5.23;;
12921;SDS011;6528;48.086;16.282;2023-02-01T12:50:24;7.63;;;5.20;;
12921;SDS011;6528;48.086;16.282;2023-02-01T12:52:57;7.80;;;5.80;;
12921;SDS011;6528;48.086;16.282;2023-02-01T12:55:36;6.23;;;5.20;;
12921;SDS011;6528;48.086;16.282;2023-02-01T12:58:12;7.27;;;5.57;;
12921;SDS011;6528;48.086;16.282;2023-02-01T13:00:44;7.50;;;5.83;;
12921;SDS011;6528;48.086;16.282;2023-02-01T13:06:02;4.83;;;4.20;;
12921;SDS011;6528;48.086;16.282;2023-02-01T13:08:40;6.60;;;5.53;;
12921;SDS011;6528;48.086;16.282;2023-02-01T13:11:13;6.97;;;5.00;;
12921;SDS011;6528;48.086;16.282;2023-02-01T13:13:48;5.57;;;4.90;;
12921;SDS011;6528;48.086;16.282;2023-02-01T13:16:27;6.23;;;5.00;;
12921;SDS011;6528;48.086;16.282;2023-02-01T13:19:00;5.00;;;4.30;;
12921;SDS011;6528;48.086;16.282;2023-02-01T13:21:46;5.50;;;4.50;;
12921;SDS011;6528;48.086;16.282;2023-02-01T13:24:31;5.50;;;4.57;;
12921;SDS011;6528;48.086;16.282;2023-02-01T13:27:13;5.37;;;4.80;;
12921;SDS011;6528;48.086;16.282;2023-02-01T13:29:45;4.83;;;4.30;;
12921;SDS011;6528;48.086;16.282;2023-02-01T13:38:18;6.50;;;4.50;;
12921;SDS011;6528;48.086;16.282;2023-02-01T13:41:29;4.50;;;4.10;;
12921;SDS011;6528;48.086;16.282;2023-02-01T13:44:01;5.73;;;4.47;;
12921;SDS011;6528;48.086;16.282;2023-02-01T13:46:41;4.40;;;4.00;;
12921;SDS011;6528;48.086;16.282;2023-02-01T13:49:18;5.23;;;4.73;;
12921;SDS011;6528;48.086;16.282;2023-02-01T13:51:49;4.90;;;3.70;;
12921;SDS011;6528;48.086;16.282;2023-02-01T13:56:53;5.30;;;4.50;;
12921;SDS011;6528;48.086;16.282;2023-02-01T14:00:03;5.57;;;4.30;;
12921;SDS011;6528;48.086;16.282;2023-02-01T14:24:01;5.20;;;4.57;;
12921;SDS011;6528;48.086;16.282;2023-02-01T14:26:45;5.00;;;4.00;;
12921;SDS011;6528;48.086;16.282;2023-02-01T14:31:59;4.30;;;3.90;;
12921;SDS011;6528;48.086;16.282;2023-02-01T14:42:28;3.83;;;3.43;;
12921;SDS011;6528;48.086;16.282;2023-02-01T14:45:45;3.73;;;3.23;;
12921;SDS011;6528;48.086;16.282;2023-02-01T14:55:53;4.03;;;3.73;;
12921;SDS011;6528;48.086;16.282;2023-02-01T15:04:04;3.90;;;3.60;;
12921;SDS011;6528;48.086;16.282;2023-02-01T15:06:48;4.33;;;3.70;;
12921;SDS011;6528;48.086;16.282;2023-02-01T15:12:08;4.37;;;3.97;;
12921;SDS011;6528;48.086;16.282;2023-02-01T15:14:38;3.50;;;3.20;;
12921;SDS011;6528;48.086;16.282;2023-02-01T15:17:25;3.73;;;3.43;;
12921;SDS011;6528;48.086;16.282;2023-02-01T15:23:03;5.00;;;3.77;;
12921;SDS011;6528;48.086;16.282;2023-02-01T15:25:33;3.90;;;3.60;;
12921;SDS011;6528;48.086;16.282;2023-02-01T15:28:03;3.50;;;3.20;;
12921;SDS011;6528;48.086;16.282;2023-02-01T15:30:32;3.20;;;3.00;;
12921;SDS011;6528;48.086;16.282;2023-02-01T15:33:19;4.60;;;4.20;;
12921;SDS011;6528;48.086;16.282;2023-02-01T15:35:47;4.17;;;3.50;;
12921;SDS011;6528;48.086;16.282;2023-02-01T15:43:28;3.37;;;3.07;;
12921;SDS011;6528;48.086;16.282;2023-02-01T15:45:59;3.60;;;3.30;;
12921;SDS011;6528;48.086;16.282;2023-02-01T15:48:30;3.50;;;3.20;;
12921;SDS011;6528;48.086;16.282;2023-02-01T15:51:02;3.87;;;3.40;;
12921;SDS011;6528;48.086;16.282;2023-02-01T15:53:29;3.70;;;3.40;;
12921;SDS011;6528;48.086;16.282;2023-02-01T15:55:58;3.23;;;2.93;;
12921;SDS011;6528;48.086;16.282;2023-02-01T15:58:27;3.40;;;3.10;;
12921;SDS011;6528;48.086;16.282;2023-02-01T16:00:58;4.20;;;2.93;;
12921;SDS011;6528;48.086;16.282;2023-02-01T16:03:41;3.40;;;3.10;;
12921;SDS011;6528;48.086;16.282;2023-02-01T16:06:11;3.20;;;2.97;;
12921;SDS011;6528;48.086;16.282;2023-02-01T16:09:11;3.57;;;3.27;;
12921;SDS011;6528;48.086;16.282;2023-02-01T16:11:51;2.97;;;2.67;;
12921;SDS011;6528;48.086;16.282;2023-02-01T16:14:22;3.50;;;3.20;;
12921;SDS011;6528;48.086;16.282;2023-02-01T16:16:49;2.60;;;2.40;;
12921;SDS011;6528;48.086;16.282;2023-02-01T16:19:17;3.90;;;2.83;;
12921;SDS011;6528;48.086;16.282;2023-02-01T16:21:45;3.30;;;3.00;;
12921;SDS011;6528;48.086;16.282;2023-02-01T16:24:12;3.40;;;3.10;;
12921;SDS011;6528;48.086;16.282;2023-02-01T16:26:39;4.83;;;3.23;;
12921;SDS011;6528;48.086;16.282;2023-02-01T16:29:06;3.40;;;3.10;;
12921;SDS011;6528;48.086;16.282;2023-02-01T16:31:34;3.17;;;2.67;;
12921;SDS011;6528;48.086;16.282;2023-02-01T16:34:04;2.93;;;2.73;;
12921;SDS011;6528;48.086;16.282;2023-02-01T16:36:32;2.70;;;2.50;;
12921;SDS011;6528;48.086;16.282;2023-02-01T16:38:59;2.63;;;2.40;;
12921;SDS011;6528;48.086;16.282;2023-02-01T16:41:28;2.67;;;2.47;;
12921;SDS011;6528;48.086;16.282;2023-02-01T16:43:55;3.30;;;3.00;;
12921;SDS011;6528;48.086;16.282;2023-02-01T16:46:23;2.93;;;2.67;;
12921;SDS011;6528;48.086;16.282;2023-02-01T16:48:53;2.70;;;2.40;;
12921;SDS011;6528;48.086;16.282;2023-02-01T16:51:22;3.97;;;2.87;;
12921;SDS011;6528;48.086;16.282;2023-02-01T16:53:51;3.40;;;3.10;;
12921;SDS011;6528;48.086;16.282;2023-02-01T16:56:38;2.50;;;2.30;;
12921;SDS011;6528;48.086;16.282;2023-02-01T16:59:08;3.10;;;2.67;;
12921;SDS011;6528;48.086;16.282;2023-02-01T17:01:35;3.07;;;2.77;;
12921;SDS011;6528;48.086;16.282;2023-02-01T17:04:03;3.53;;;2.90;;
12921;SDS011;6528;48.086;16.282;2023-02-01T17:06:30;2.67;;;2.47;;
12921;SDS011;6528;48.086;16.282;2023-02-01T17:08:59;2.60;;;2.40;;
12921;SDS011;6528;48.086;16.282;2023-02-01T17:11:28;2.50;;;2.30;;
12921;SDS011;6528;48.086;16.282;2023-02-01T17:14:13;2.63;;;2.43;;
12921;SDS011;6528;48.086;16.282;2023-02-01T17:16:45;3.43;;;3.13;;
12921;SDS011;6528;48.086;16.282;2023-02-01T17:19:15;3.00;;;2.50;;
12921;SDS011;6528;48.086;16.282;2023-02-01T17:21:46;3.33;;;3.03;;
12921;SDS011;6528;48.086;16.282;2023-02-01T17:24:20;2.83;;;2.50;;
12921;SDS011;6528;48.086;16.282;2023-02-01T17:26:50;2.70;;;2.50;;
12921;SDS011;6528;48.086;16.282;2023-02-01T17:29:17;2.80;;;2.60;;
12921;SDS011;6528;48.086;16.282;2023-02-01T17:31:46;2.63;;;2.43;;
12921;SDS011;6528;48.086;16.282;2023-02-01T17:34:15;2.60;;;2.40;;
12921;SDS011;6528;48.086;16.282;2023-02-01T17:36:44;2.67;;;2.47;;
12921;SDS011;6528;48.086;16.282;2023-02-01T17:39:12;2.67;;;2.47;;
12921;SDS011;6528;48.086;16.282;2023-02-01T17:42:01;2.47;;;2.20;;
12921;SDS011;6528;48.086;16.282;2023-02-01T17:44:29;2.70;;;2.50;;
12921;SDS011;6528;48.086;16.282;2023-02-01T17:46:56;2.70;;;2.50;;